sensor_id;sensor_type;location;lat;lon;timestamp;P1;durP1;ratioP1;P2;durP2;ratioP2
13989;SDS011;7069;52.528;13.316;2022-12-18T00:02:10;31.63;;;14.87;;
13989;SDS011;7069;52.528;13.316;2022-12-18T00:04:37;29.10;;;15.67;;
13989;SDS011;7069;52.528;13.316;2022-12-18T00:07:04;29.83;;;15.87;;
13989;SDS011;7069;52.528;13.316;2022-12-18T00:09:32;31.00;;;16.93;;
13989;SDS011;7069;52.528;13.316;2022-12-18T00:11:58;30.87;;;17.80;;
13989;SDS011;7069;52.528;13.316;2022-12-18T00:14:25;32.33;;;17.30;;
13989;SDS011;7069;52.528;13.316;2022-12-18T00:16:51;33.43;;;16.40;;
13989;SDS011;7069;52.528;13.316;2022-12-18T00:19:18;34.10;;;17.00;;
13989;SDS011;7069;52.528;13.316;2022-12-18T00:21:44;30.93;;;15.57;;
13989;SDS011;7069;52.528;13.316;2022-12-18T00:24:11;30.27;;;15.13;;
13989;SDS011;7069;52.528;13.316;2022-12-18T00:26:39;33.63;;;16.47;;
13989;SDS011;7069;52.528;13.316;2022-12-18T00:29:06;33.73;;;14.80;;
13989;SDS011;7069;52.528;13.316;2022-12-18T00:31:34;25.27;;;13.50;;
13989;SDS011;7069;52.528;13.316;2022-12-18T00:34:00;28.77;;;14.87;;
13989;SDS011;7069;52.528;13.316;2022-12-18T00:36:28;31.00;;;15.73;;
13989;SDS011;7069;52.528;13.316;2022-12-18T00:38:57;28.67;;;15.40;;
13989;SDS011;7069;52.528;13.316;2022-12-18T00:41:24;26.00;;;15.57;;
13989;SDS011;7069;52.528;13.316;2022-12-18T00:44:11;28.03;;;14.17;;
13989;SDS011;7069;52.528;13.316;2022-12-18T00:46:39;26.80;;;15.10;;
13989;SDS011;7069;52.528;13.316;2022-12-18T00:49:06;30.63;;;15.60;;
13989;SDS011;7069;52.528;13.316;2022-12-18T00:51:33;28.10;;;15.40;;
13989;SDS011;7069;52.528;13.316;2022-12-18T00:54:00;31.50;;;16.70;;
13989;SDS011;7069;52.528;13.316;2022-12-18T00:56:27;28.13;;;14.83;;
13989;SDS011;7069;52.528;13.316;2022-12-18T00:58:53;28.60;;;13.97;;
13989;SDS011;7069;52.528;13.316;2022-12-18T01:01:21;29.23;;;14.73;;
13989;SDS011;7069;52.528;13.316;2022-12-18T01:03:48;27.40;;;15.20;;
13989;SDS011;7069;52.528;13.316;2022-12-18T01:06:15;29.83;;;15.10;;
13989;SDS011;7069;52.528;13.316;2022-12-18T01:08:42;28.90;;;15.70;;
13989;SDS011;7069;52.528;13.316;2022-12-18T01:11:10;28.83;;;16.13;;
13989;SDS011;7069;52.528;13.316;2022-12-18T01:13:38;30.40;;;14.67;;
13989;SDS011;7069;52.528;13.316;2022-12-18T01:16:05;36.57;;;18.70;;
13989;SDS011;7069;52.528;13.316;2022-12-18T01:18:33;28.90;;;15.73;;
13989;SDS011;7069;52.528;13.316;2022-12-18T01:21:00;27.63;;;15.30;;
13989;SDS011;7069;52.528;13.316;2022-12-18T01:23:26;28.30;;;15.63;;
13989;SDS011;7069;52.528;13.316;2022-12-18T01:25:53;30.00;;;14.80;;
13989;SDS011;7069;52.528;13.316;2022-12-18T01:28:20;30.77;;;15.47;;
13989;SDS011;7069;52.528;13.316;2022-12-18T01:30:46;29.70;;;15.03;;
13989;SDS011;7069;52.528;13.316;2022-12-18T01:33:13;28.33;;;15.60;;
13989;SDS011;7069;52.528;13.316;2022-12-18T01:35:41;31.67;;;16.03;;
13989;SDS011;7069;52.528;13.316;2022-12-18T01:38:08;32.67;;;16.07;;
13989;SDS011;7069;52.528;13.316;2022-12-18T01:40:35;25.00;;;14.53;;
13989;SDS011;7069;52.528;13.316;2022-12-18T01:43:02;29.33;;;14.53;;
13989;SDS011;7069;52.528;13.316;2022-12-18T01:45:29;32.20;;;16.57;;
13989;SDS011;7069;52.528;13.316;2022-12-18T01:47:57;29.10;;;15.40;;
13989;SDS011;7069;52.528;13.316;2022-12-18T01:50:27;34.17;;;16.97;;
13989;SDS011;7069;52.528;13.316;2022-12-18T01:52:58;31.97;;;16.13;;
13989;SDS011;7069;52.528;13.316;2022-12-18T01:55:27;30.73;;;16.67;;
13989;SDS011;7069;52.528;13.316;2022-12-18T01:57:56;30.43;;;16.67;;
13989;SDS011;7069;52.528;13.316;2022-12-18T02:00:25;26.23;;;15.73;;
13989;SDS011;7069;52.528;13.316;2022-12-18T02:02:53;34.63;;;16.83;;
13989;SDS011;7069;52.528;13.316;2022-12-18T02:05:22;29.50;;;14.87;;
13989;SDS011;7069;52.528;13.316;2022-12-18T02:07:57;28.40;;;15.43;;
13989;SDS011;7069;52.528;13.316;2022-12-18T02:10:32;29.73;;;14.93;;
13989;SDS011;7069;52.528;13.316;2022-12-18T02:13:02;32.00;;;17.80;;
13989;SDS011;7069;52.528;13.316;2022-12-18T02:15:36;35.07;;;16.60;;
13989;SDS011;7069;52.528;13.316;2022-12-18T02:18:06;24.23;;;14.53;;
13989;SDS011;7069;52.528;13.316;2022-12-18T02:20:35;31.87;;;17.33;;
13989;SDS011;7069;52.528;13.316;2022-12-18T02:23:08;27.47;;;14.43;;
13989;SDS011;7069;52.528;13.316;2022-12-18T02:25:59;32.30;;;16.17;;
13989;SDS011;7069;52.528;13.316;2022-12-18T02:28:31;29.23;;;15.50;;
13989;SDS011;7069;52.528;13.316;2022-12-18T02:31:01;32.77;;;16.60;;
13989;SDS011;7069;52.528;13.316;2022-12-18T02:33:30;33.13;;;16.37;;
13989;SDS011;7069;52.528;13.316;2022-12-18T02:35:58;27.20;;;15.50;;
13989;SDS011;7069;52.528;13.316;2022-12-18T02:38:25;38.63;;;16.83;;
13989;SDS011;7069;52.528;13.316;2022-12-18T02:40:53;35.27;;;16.80;;
13989;SDS011;7069;52.528;13.316;2022-12-18T02:43:21;31.70;;;16.83;;
13989;SDS011;7069;52.528;13.316;2022-12-18T02:45:50;40.17;;;16.87;;
13989;SDS011;7069;52.528;13.316;2022-12-18T02:48:19;29.20;;;15.87;;
13989;SDS011;7069;52.528;13.316;2022-12-18T02:50:51;37.97;;;18.03;;
13989;SDS011;7069;52.528;13.316;2022-12-18T02:53:22;32.07;;;19.67;;
13989;SDS011;7069;52.528;13.316;2022-12-18T02:55:54;29.07;;;15.40;;
13989;SDS011;7069;52.528;13.316;2022-12-18T02:58:28;30.33;;;15.70;;
13989;SDS011;7069;52.528;13.316;2022-12-18T03:00:59;35.10;;;15.73;;
13989;SDS011;7069;52.528;13.316;2022-12-18T03:03:29;28.70;;;15.00;;
13989;SDS011;7069;52.528;13.316;2022-12-18T03:05:58;28.27;;;15.37;;
13989;SDS011;7069;52.528;13.316;2022-12-18T03:08:28;27.13;;;15.03;;
13989;SDS011;7069;52.528;13.316;2022-12-18T03:10:59;30.43;;;15.33;;
13989;SDS011;7069;52.528;13.316;2022-12-18T03:13:30;30.83;;;15.93;;
13989;SDS011;7069;52.528;13.316;2022-12-18T03:15:58;42.17;;;16.23;;
13989;SDS011;7069;52.528;13.316;2022-12-18T03:18:26;31.93;;;15.83;;
13989;SDS011;7069;52.528;13.316;2022-12-18T03:20:56;26.90;;;14.73;;
13989;SDS011;7069;52.528;13.316;2022-12-18T03:23:25;26.50;;;14.90;;
13989;SDS011;7069;52.528;13.316;2022-12-18T03:25:54;27.67;;;13.73;;
13989;SDS011;7069;52.528;13.316;2022-12-18T03:28:24;30.03;;;15.40;;
13989;SDS011;7069;52.528;13.316;2022-12-18T03:30:56;30.77;;;14.60;;
13989;SDS011;7069;52.528;13.316;2022-12-18T03:33:25;38.13;;;17.87;;
13989;SDS011;7069;52.528;13.316;2022-12-18T03:35:53;29.10;;;14.43;;
13989;SDS011;7069;52.528;13.316;2022-12-18T03:38:20;33.97;;;17.37;;
13989;SDS011;7069;52.528;13.316;2022-12-18T03:40:50;34.00;;;17.03;;
13989;SDS011;7069;52.528;13.316;2022-12-18T03:43:25;27.63;;;15.87;;
13989;SDS011;7069;52.528;13.316;2022-12-18T03:46:04;33.33;;;16.97;;
13989;SDS011;7069;52.528;13.316;2022-12-18T03:48:36;33.77;;;16.60;;
13989;SDS011;7069;52.528;13.316;2022-12-18T03:51:06;33.40;;;16.83;;
13989;SDS011;7069;52.528;13.316;2022-12-18T03:53:36;26.87;;;13.37;;
13989;SDS011;7069;52.528;13.316;2022-12-18T03:56:06;28.23;;;15.90;;
13989;SDS011;7069;52.528;13.316;2022-12-18T03:58:34;29.03;;;16.17;;
13989;SDS011;7069;52.528;13.316;2022-12-18T04:01:05;29.07;;;15.27;;
13989;SDS011;7069;52.528;13.316;2022-12-18T04:03:36;28.07;;;15.70;;
13989;SDS011;7069;52.528;13.316;2022-12-18T04:06:04;25.97;;;15.10;;
13989;SDS011;7069;52.528;13.316;2022-12-18T04:08:32;32.83;;;16.50;;
13989;SDS011;7069;52.528;13.316;2022-12-18T04:11:00;35.60;;;16.07;;
13989;SDS011;7069;52.528;13.316;2022-12-18T04:13:28;41.47;;;19.07;;
13989;SDS011;7069;52.528;13.316;2022-12-18T04:15:57;37.17;;;18.50;;
13989;SDS011;7069;52.528;13.316;2022-12-18T04:18:25;35.57;;;17.00;;
13989;SDS011;7069;52.528;13.316;2022-12-18T04:20:52;36.03;;;18.57;;
13989;SDS011;7069;52.528;13.316;2022-12-18T04:23:19;43.67;;;22.37;;
13989;SDS011;7069;52.528;13.316;2022-12-18T04:25:48;42.73;;;18.57;;
13989;SDS011;7069;52.528;13.316;2022-12-18T04:28:15;45.57;;;21.23;;
13989;SDS011;7069;52.528;13.316;2022-12-18T04:30:42;41.07;;;19.90;;
13989;SDS011;7069;52.528;13.316;2022-12-18T04:33:10;46.50;;;20.07;;
13989;SDS011;7069;52.528;13.316;2022-12-18T04:35:38;44.40;;;21.33;;
13989;SDS011;7069;52.528;13.316;2022-12-18T04:38:06;44.63;;;19.60;;
13989;SDS011;7069;52.528;13.316;2022-12-18T04:40:34;41.67;;;19.30;;
13989;SDS011;7069;52.528;13.316;2022-12-18T04:43:02;45.43;;;19.40;;
13989;SDS011;7069;52.528;13.316;2022-12-18T04:45:29;37.40;;;17.47;;
13989;SDS011;7069;52.528;13.316;2022-12-18T04:47:56;46.40;;;19.80;;
13989;SDS011;7069;52.528;13.316;2022-12-18T04:50:23;48.47;;;21.57;;
13989;SDS011;7069;52.528;13.316;2022-12-18T04:52:52;49.83;;;21.63;;
13989;SDS011;7069;52.528;13.316;2022-12-18T04:55:19;45.40;;;20.40;;
13989;SDS011;7069;52.528;13.316;2022-12-18T04:57:50;50.97;;;23.27;;
13989;SDS011;7069;52.528;13.316;2022-12-18T05:00:17;56.13;;;23.13;;
13989;SDS011;7069;52.528;13.316;2022-12-18T05:02:44;49.50;;;22.83;;
13989;SDS011;7069;52.528;13.316;2022-12-18T05:05:12;49.93;;;24.13;;
13989;SDS011;7069;52.528;13.316;2022-12-18T05:07:39;51.33;;;23.87;;
13989;SDS011;7069;52.528;13.316;2022-12-18T05:10:08;60.87;;;24.23;;
13989;SDS011;7069;52.528;13.316;2022-12-18T05:12:35;46.60;;;24.50;;
13989;SDS011;7069;52.528;13.316;2022-12-18T05:15:23;54.87;;;23.20;;
13989;SDS011;7069;52.528;13.316;2022-12-18T05:17:50;57.57;;;24.03;;
13989;SDS011;7069;52.528;13.316;2022-12-18T05:20:17;50.20;;;21.90;;
13989;SDS011;7069;52.528;13.316;2022-12-18T05:22:44;56.97;;;22.40;;
13989;SDS011;7069;52.528;13.316;2022-12-18T05:25:13;56.70;;;25.37;;
13989;SDS011;7069;52.528;13.316;2022-12-18T05:27:40;50.07;;;22.93;;
13989;SDS011;7069;52.528;13.316;2022-12-18T05:30:07;43.27;;;21.97;;
13989;SDS011;7069;52.528;13.316;2022-12-18T05:32:34;49.10;;;25.50;;
13989;SDS011;7069;52.528;13.316;2022-12-18T05:35:01;49.53;;;22.73;;
13989;SDS011;7069;52.528;13.316;2022-12-18T05:37:29;47.50;;;23.97;;
13989;SDS011;7069;52.528;13.316;2022-12-18T05:39:55;54.00;;;26.40;;
13989;SDS011;7069;52.528;13.316;2022-12-18T05:42:24;48.57;;;22.73;;
13989;SDS011;7069;52.528;13.316;2022-12-18T05:44:51;50.53;;;22.83;;
13989;SDS011;7069;52.528;13.316;2022-12-18T05:47:18;45.83;;;21.83;;
13989;SDS011;7069;52.528;13.316;2022-12-18T05:49:45;50.83;;;22.50;;
13989;SDS011;7069;52.528;13.316;2022-12-18T05:52:12;49.67;;;22.93;;
13989;SDS011;7069;52.528;13.316;2022-12-18T05:54:39;56.20;;;23.03;;
13989;SDS011;7069;52.528;13.316;2022-12-18T05:57:06;57.30;;;24.27;;
13989;SDS011;7069;52.528;13.316;2022-12-18T05:59:34;50.47;;;23.33;;
13989;SDS011;7069;52.528;13.316;2022-12-18T06:02:01;54.87;;;24.33;;
13989;SDS011;7069;52.528;13.316;2022-12-18T06:04:28;49.60;;;23.57;;
13989;SDS011;7069;52.528;13.316;2022-12-18T06:06:58;55.60;;;25.37;;
13989;SDS011;7069;52.528;13.316;2022-12-18T06:09:24;48.23;;;24.13;;
13989;SDS011;7069;52.528;13.316;2022-12-18T06:11:52;51.03;;;23.83;;
13989;SDS011;7069;52.528;13.316;2022-12-18T06:14:19;51.83;;;25.67;;
13989;SDS011;7069;52.528;13.316;2022-12-18T06:16:47;46.17;;;24.30;;
13989;SDS011;7069;52.528;13.316;2022-12-18T06:19:15;48.80;;;22.80;;
13989;SDS011;7069;52.528;13.316;2022-12-18T06:21:42;53.90;;;24.77;;
13989;SDS011;7069;52.528;13.316;2022-12-18T06:24:09;47.60;;;25.07;;
13989;SDS011;7069;52.528;13.316;2022-12-18T06:26:37;50.83;;;24.87;;
13989;SDS011;7069;52.528;13.316;2022-12-18T06:29:04;54.30;;;25.63;;
13989;SDS011;7069;52.528;13.316;2022-12-18T06:31:31;55.70;;;25.63;;
13989;SDS011;7069;52.528;13.316;2022-12-18T06:34:01;65.73;;;26.20;;
13989;SDS011;7069;52.528;13.316;2022-12-18T06:36:28;50.73;;;24.33;;
13989;SDS011;7069;52.528;13.316;2022-12-18T06:38:55;49.63;;;23.40;;
13989;SDS011;7069;52.528;13.316;2022-12-18T06:41:23;47.10;;;24.17;;
13989;SDS011;7069;52.528;13.316;2022-12-18T06:43:53;57.33;;;24.33;;
13989;SDS011;7069;52.528;13.316;2022-12-18T06:46:20;55.30;;;25.50;;
13989;SDS011;7069;52.528;13.316;2022-12-18T06:48:48;57.07;;;25.40;;
13989;SDS011;7069;52.528;13.316;2022-12-18T06:51:18;59.53;;;25.00;;
13989;SDS011;7069;52.528;13.316;2022-12-18T06:53:46;53.63;;;24.47;;
13989;SDS011;7069;52.528;13.316;2022-12-18T06:56:13;55.40;;;25.97;;
13989;SDS011;7069;52.528;13.316;2022-12-18T06:58:40;59.03;;;24.77;;
13989;SDS011;7069;52.528;13.316;2022-12-18T07:01:08;54.73;;;25.00;;
13989;SDS011;7069;52.528;13.316;2022-12-18T07:03:36;48.37;;;24.43;;
13989;SDS011;7069;52.528;13.316;2022-12-18T07:06:03;49.10;;;24.10;;
13989;SDS011;7069;52.528;13.316;2022-12-18T07:08:31;56.67;;;24.63;;
13989;SDS011;7069;52.528;13.316;2022-12-18T07:10:59;58.00;;;25.87;;
13989;SDS011;7069;52.528;13.316;2022-12-18T07:13:28;46.27;;;22.93;;
13989;SDS011;7069;52.528;13.316;2022-12-18T07:15:55;57.40;;;26.03;;
13989;SDS011;7069;52.528;13.316;2022-12-18T07:18:29;57.40;;;25.77;;
13989;SDS011;7069;52.528;13.316;2022-12-18T07:20:56;49.83;;;22.50;;
13989;SDS011;7069;52.528;13.316;2022-12-18T07:23:23;53.40;;;25.83;;
13989;SDS011;7069;52.528;13.316;2022-12-18T07:25:52;49.93;;;23.67;;
13989;SDS011;7069;52.528;13.316;2022-12-18T07:28:19;39.27;;;22.70;;
13989;SDS011;7069;52.528;13.316;2022-12-18T07:30:45;49.80;;;22.60;;
13989;SDS011;7069;52.528;13.316;2022-12-18T07:33:12;47.37;;;22.27;;
13989;SDS011;7069;52.528;13.316;2022-12-18T07:35:39;54.10;;;22.50;;
13989;SDS011;7069;52.528;13.316;2022-12-18T07:38:06;46.57;;;22.17;;
13989;SDS011;7069;52.528;13.316;2022-12-18T07:40:33;42.10;;;21.33;;
13989;SDS011;7069;52.528;13.316;2022-12-18T07:43:02;36.13;;;20.23;;
13989;SDS011;7069;52.528;13.316;2022-12-18T07:45:29;38.73;;;18.90;;
13989;SDS011;7069;52.528;13.316;2022-12-18T07:47:59;37.10;;;20.43;;
13989;SDS011;7069;52.528;13.316;2022-12-18T07:50:25;47.23;;;21.80;;
13989;SDS011;7069;52.528;13.316;2022-12-18T07:52:52;34.93;;;18.77;;
13989;SDS011;7069;52.528;13.316;2022-12-18T07:55:19;39.00;;;19.00;;
13989;SDS011;7069;52.528;13.316;2022-12-18T07:57:46;35.23;;;17.30;;
13989;SDS011;7069;52.528;13.316;2022-12-18T08:00:15;37.07;;;18.73;;
13989;SDS011;7069;52.528;13.316;2022-12-18T08:02:42;33.07;;;16.73;;
13989;SDS011;7069;52.528;13.316;2022-12-18T08:05:09;36.83;;;17.57;;
13989;SDS011;7069;52.528;13.316;2022-12-18T08:07:36;29.60;;;16.20;;
13989;SDS011;7069;52.528;13.316;2022-12-18T08:10:03;38.77;;;18.27;;
13989;SDS011;7069;52.528;13.316;2022-12-18T08:12:30;39.53;;;19.20;;
13989;SDS011;7069;52.528;13.316;2022-12-18T08:14:57;39.50;;;18.27;;
13989;SDS011;7069;52.528;13.316;2022-12-18T08:17:25;40.10;;;18.30;;
13989;SDS011;7069;52.528;13.316;2022-12-18T08:19:52;38.20;;;20.33;;
13989;SDS011;7069;52.528;13.316;2022-12-18T08:22:19;34.00;;;18.80;;
13989;SDS011;7069;52.528;13.316;2022-12-18T08:24:46;35.20;;;16.93;;
13989;SDS011;7069;52.528;13.316;2022-12-18T08:27:13;34.40;;;17.93;;
13989;SDS011;7069;52.528;13.316;2022-12-18T08:29:40;37.47;;;18.17;;
13989;SDS011;7069;52.528;13.316;2022-12-18T08:32:07;35.57;;;18.77;;
13989;SDS011;7069;52.528;13.316;2022-12-18T08:34:35;41.03;;;18.53;;
13989;SDS011;7069;52.528;13.316;2022-12-18T08:37:03;40.90;;;19.53;;
13989;SDS011;7069;52.528;13.316;2022-12-18T08:39:30;32.57;;;18.33;;
13989;SDS011;7069;52.528;13.316;2022-12-18T08:41:57;33.00;;;19.17;;
13989;SDS011;7069;52.528;13.316;2022-12-18T08:44:41;40.97;;;19.93;;
13989;SDS011;7069;52.528;13.316;2022-12-18T08:47:08;41.63;;;19.73;;
13989;SDS011;7069;52.528;13.316;2022-12-18T08:49:37;35.03;;;18.13;;
13989;SDS011;7069;52.528;13.316;2022-12-18T08:52:03;36.20;;;17.30;;
13989;SDS011;7069;52.528;13.316;2022-12-18T08:54:30;31.27;;;18.30;;
13989;SDS011;7069;52.528;13.316;2022-12-18T08:56:57;36.53;;;18.93;;
13989;SDS011;7069;52.528;13.316;2022-12-18T08:59:24;35.73;;;19.33;;
13989;SDS011;7069;52.528;13.316;2022-12-18T09:01:54;35.20;;;16.93;;
13989;SDS011;7069;52.528;13.316;2022-12-18T09:04:21;31.50;;;17.10;;
13989;SDS011;7069;52.528;13.316;2022-12-18T09:06:50;30.70;;;18.40;;
13989;SDS011;7069;52.528;13.316;2022-12-18T09:09:20;36.43;;;18.77;;
13989;SDS011;7069;52.528;13.316;2022-12-18T09:11:47;35.77;;;16.33;;
13989;SDS011;7069;52.528;13.316;2022-12-18T09:14:13;33.00;;;17.30;;
13989;SDS011;7069;52.528;13.316;2022-12-18T09:16:40;34.90;;;17.23;;
13989;SDS011;7069;52.528;13.316;2022-12-18T09:19:08;33.20;;;16.53;;
13989;SDS011;7069;52.528;13.316;2022-12-18T09:21:35;32.57;;;16.97;;
13989;SDS011;7069;52.528;13.316;2022-12-18T09:24:08;35.13;;;17.43;;
13989;SDS011;7069;52.528;13.316;2022-12-18T09:26:38;27.57;;;15.30;;
13989;SDS011;7069;52.528;13.316;2022-12-18T09:29:05;29.50;;;15.70;;
13989;SDS011;7069;52.528;13.316;2022-12-18T09:31:33;33.73;;;17.40;;
13989;SDS011;7069;52.528;13.316;2022-12-18T09:34:01;27.40;;;15.73;;
13989;SDS011;7069;52.528;13.316;2022-12-18T09:36:31;29.63;;;14.73;;
13989;SDS011;7069;52.528;13.316;2022-12-18T09:38:57;28.23;;;16.97;;
13989;SDS011;7069;52.528;13.316;2022-12-18T09:41:37;32.17;;;15.97;;
13989;SDS011;7069;52.528;13.316;2022-12-18T09:44:10;31.00;;;17.43;;
13989;SDS011;7069;52.528;13.316;2022-12-18T09:46:43;29.03;;;16.77;;
13989;SDS011;7069;52.528;13.316;2022-12-18T09:49:12;26.53;;;15.43;;
13989;SDS011;7069;52.528;13.316;2022-12-18T09:51:42;29.80;;;17.50;;
13989;SDS011;7069;52.528;13.316;2022-12-18T09:54:12;30.93;;;16.43;;
13989;SDS011;7069;52.528;13.316;2022-12-18T09:56:43;29.57;;;15.70;;
13989;SDS011;7069;52.528;13.316;2022-12-18T09:59:14;28.60;;;16.13;;
13989;SDS011;7069;52.528;13.316;2022-12-18T10:01:46;31.00;;;16.43;;
13989;SDS011;7069;52.528;13.316;2022-12-18T10:04:13;32.33;;;15.67;;
13989;SDS011;7069;52.528;13.316;2022-12-18T10:06:42;31.77;;;16.30;;
13989;SDS011;7069;52.528;13.316;2022-12-18T10:09:12;35.63;;;17.10;;
13989;SDS011;7069;52.528;13.316;2022-12-18T10:11:47;28.60;;;15.07;;
13989;SDS011;7069;52.528;13.316;2022-12-18T10:14:18;31.53;;;16.33;;
13989;SDS011;7069;52.528;13.316;2022-12-18T10:16:54;28.63;;;15.87;;
13989;SDS011;7069;52.528;13.316;2022-12-18T10:19:29;30.77;;;15.73;;
13989;SDS011;7069;52.528;13.316;2022-12-18T10:22:11;26.17;;;15.37;;
13989;SDS011;7069;52.528;13.316;2022-12-18T10:24:43;31.60;;;15.37;;
13989;SDS011;7069;52.528;13.316;2022-12-18T10:27:16;28.43;;;15.63;;
13989;SDS011;7069;52.528;13.316;2022-12-18T10:29:44;30.50;;;15.93;;
13989;SDS011;7069;52.528;13.316;2022-12-18T10:32:16;28.70;;;15.30;;
13989;SDS011;7069;52.528;13.316;2022-12-18T10:34:45;31.93;;;16.13;;
13989;SDS011;7069;52.528;13.316;2022-12-18T10:37:14;32.57;;;16.57;;
13989;SDS011;7069;52.528;13.316;2022-12-18T10:39:42;28.77;;;14.83;;
13989;SDS011;7069;52.528;13.316;2022-12-18T10:42:10;29.97;;;14.67;;
13989;SDS011;7069;52.528;13.316;2022-12-18T10:44:41;32.07;;;16.63;;
13989;SDS011;7069;52.528;13.316;2022-12-18T10:47:11;32.63;;;17.47;;
13989;SDS011;7069;52.528;13.316;2022-12-18T10:49:40;32.73;;;17.00;;
13989;SDS011;7069;52.528;13.316;2022-12-18T10:52:14;36.60;;;18.20;;
13989;SDS011;7069;52.528;13.316;2022-12-18T10:54:46;30.70;;;15.83;;
13989;SDS011;7069;52.528;13.316;2022-12-18T10:57:15;36.93;;;17.17;;
13989;SDS011;7069;52.528;13.316;2022-12-18T10:59:52;31.50;;;16.90;;
13989;SDS011;7069;52.528;13.316;2022-12-18T11:02:26;35.47;;;17.70;;
13989;SDS011;7069;52.528;13.316;2022-12-18T11:04:57;34.47;;;17.13;;
13989;SDS011;7069;52.528;13.316;2022-12-18T11:07:24;33.63;;;17.33;;
13989;SDS011;7069;52.528;13.316;2022-12-18T11:09:59;36.20;;;19.20;;
13989;SDS011;7069;52.528;13.316;2022-12-18T11:12:30;36.80;;;18.33;;
13989;SDS011;7069;52.528;13.316;2022-12-18T11:14:58;37.33;;;18.70;;
13989;SDS011;7069;52.528;13.316;2022-12-18T11:17:28;32.70;;;16.63;;
13989;SDS011;7069;52.528;13.316;2022-12-18T11:19:56;34.80;;;15.83;;
13989;SDS011;7069;52.528;13.316;2022-12-18T11:22:23;39.67;;;18.73;;
13989;SDS011;7069;52.528;13.316;2022-12-18T11:24:53;32.27;;;18.63;;
13989;SDS011;7069;52.528;13.316;2022-12-18T11:27:22;33.83;;;18.13;;
13989;SDS011;7069;52.528;13.316;2022-12-18T11:29:49;30.90;;;16.40;;
13989;SDS011;7069;52.528;13.316;2022-12-18T11:32:22;29.60;;;15.27;;
13989;SDS011;7069;52.528;13.316;2022-12-18T11:34:55;35.53;;;17.90;;
13989;SDS011;7069;52.528;13.316;2022-12-18T11:37:25;33.60;;;17.30;;
13989;SDS011;7069;52.528;13.316;2022-12-18T11:39:54;31.43;;;18.30;;
13989;SDS011;7069;52.528;13.316;2022-12-18T11:42:24;29.47;;;17.20;;
13989;SDS011;7069;52.528;13.316;2022-12-18T11:44:54;26.77;;;15.50;;
13989;SDS011;7069;52.528;13.316;2022-12-18T11:47:27;25.83;;;14.70;;
13989;SDS011;7069;52.528;13.316;2022-12-18T11:49:58;29.80;;;15.40;;
13989;SDS011;7069;52.528;13.316;2022-12-18T11:52:27;26.60;;;14.53;;
13989;SDS011;7069;52.528;13.316;2022-12-18T11:55:00;33.10;;;17.60;;
13989;SDS011;7069;52.528;13.316;2022-12-18T11:57:32;26.47;;;15.70;;
13989;SDS011;7069;52.528;13.316;2022-12-18T12:00:03;31.57;;;17.17;;
13989;SDS011;7069;52.528;13.316;2022-12-18T12:02:40;31.10;;;15.90;;
13989;SDS011;7069;52.528;13.316;2022-12-18T12:05:20;31.00;;;15.13;;
13989;SDS011;7069;52.528;13.316;2022-12-18T12:07:53;32.70;;;17.40;;
13989;SDS011;7069;52.528;13.316;2022-12-18T12:10:25;31.43;;;15.90;;
13989;SDS011;7069;52.528;13.316;2022-12-18T12:13:02;29.97;;;16.13;;
13989;SDS011;7069;52.528;13.316;2022-12-18T12:15:40;31.17;;;16.43;;
13989;SDS011;7069;52.528;13.316;2022-12-18T12:18:16;29.77;;;16.13;;
13989;SDS011;7069;52.528;13.316;2022-12-18T12:20:52;30.60;;;15.73;;
13989;SDS011;7069;52.528;13.316;2022-12-18T12:23:25;29.40;;;15.30;;
13989;SDS011;7069;52.528;13.316;2022-12-18T12:25:56;26.33;;;14.77;;
13989;SDS011;7069;52.528;13.316;2022-12-18T12:28:31;32.43;;;16.33;;
13989;SDS011;7069;52.528;13.316;2022-12-18T12:31:04;26.23;;;14.30;;
13989;SDS011;7069;52.528;13.316;2022-12-18T12:33:38;25.73;;;15.40;;
13989;SDS011;7069;52.528;13.316;2022-12-18T12:36:12;29.77;;;15.50;;
13989;SDS011;7069;52.528;13.316;2022-12-18T12:38:44;31.83;;;15.73;;
13989;SDS011;7069;52.528;13.316;2022-12-18T12:41:16;27.53;;;15.17;;
13989;SDS011;7069;52.528;13.316;2022-12-18T12:44:03;28.57;;;16.20;;
13989;SDS011;7069;52.528;13.316;2022-12-18T12:46:32;29.87;;;14.47;;
13989;SDS011;7069;52.528;13.316;2022-12-18T12:49:02;27.93;;;15.33;;
13989;SDS011;7069;52.528;13.316;2022-12-18T12:51:32;26.03;;;14.67;;
13989;SDS011;7069;52.528;13.316;2022-12-18T12:54:00;24.40;;;14.37;;
13989;SDS011;7069;52.528;13.316;2022-12-18T12:56:31;29.23;;;15.20;;
13989;SDS011;7069;52.528;13.316;2022-12-18T12:59:04;33.27;;;16.50;;
13989;SDS011;7069;52.528;13.316;2022-12-18T13:01:38;30.17;;;17.20;;
13989;SDS011;7069;52.528;13.316;2022-12-18T13:04:12;23.10;;;14.17;;
13989;SDS011;7069;52.528;13.316;2022-12-18T13:06:43;25.77;;;14.53;;
13989;SDS011;7069;52.528;13.316;2022-12-18T13:09:12;23.93;;;15.23;;
13989;SDS011;7069;52.528;13.316;2022-12-18T13:11:39;26.50;;;15.00;;
13989;SDS011;7069;52.528;13.316;2022-12-18T13:14:28;27.03;;;15.07;;
13989;SDS011;7069;52.528;13.316;2022-12-18T13:20:04;28.67;;;15.63;;
13989;SDS011;7069;52.528;13.316;2022-12-18T13:22:35;23.37;;;14.20;;
13989;SDS011;7069;52.528;13.316;2022-12-18T13:27:59;21.77;;;15.93;;
13989;SDS011;7069;52.528;13.316;2022-12-18T13:33:38;23.00;;;13.37;;
13989;SDS011;7069;52.528;13.316;2022-12-18T13:36:15;23.27;;;14.83;;
13989;SDS011;7069;52.528;13.316;2022-12-18T13:41:50;24.70;;;14.57;;
13989;SDS011;7069;52.528;13.316;2022-12-18T13:44:31;27.37;;;15.40;;
13989;SDS011;7069;52.528;13.316;2022-12-18T13:46:59;28.40;;;15.47;;
13989;SDS011;7069;52.528;13.316;2022-12-18T13:49:26;28.53;;;16.00;;
13989;SDS011;7069;52.528;13.316;2022-12-18T13:51:57;25.53;;;16.77;;
13989;SDS011;7069;52.528;13.316;2022-12-18T13:54:25;23.83;;;14.60;;
13989;SDS011;7069;52.528;13.316;2022-12-18T13:56:55;26.60;;;15.40;;
13989;SDS011;7069;52.528;13.316;2022-12-18T13:59:22;23.57;;;16.33;;
13989;SDS011;7069;52.528;13.316;2022-12-18T14:01:51;24.80;;;15.63;;
13989;SDS011;7069;52.528;13.316;2022-12-18T14:04:20;24.33;;;14.13;;
13989;SDS011;7069;52.528;13.316;2022-12-18T14:06:51;25.67;;;15.33;;
13989;SDS011;7069;52.528;13.316;2022-12-18T14:09:21;20.60;;;14.60;;
13989;SDS011;7069;52.528;13.316;2022-12-18T14:11:51;21.77;;;15.30;;
13989;SDS011;7069;52.528;13.316;2022-12-18T14:14:18;24.20;;;14.73;;
13989;SDS011;7069;52.528;13.316;2022-12-18T14:16:45;23.30;;;14.97;;
13989;SDS011;7069;52.528;13.316;2022-12-18T14:19:13;28.50;;;17.23;;
13989;SDS011;7069;52.528;13.316;2022-12-18T14:21:44;28.40;;;20.03;;
13989;SDS011;7069;52.528;13.316;2022-12-18T14:24:13;29.73;;;17.40;;
13989;SDS011;7069;52.528;13.316;2022-12-18T14:26:42;24.60;;;15.73;;
13989;SDS011;7069;52.528;13.316;2022-12-18T14:29:19;30.73;;;17.37;;
13989;SDS011;7069;52.528;13.316;2022-12-18T14:34:30;29.43;;;18.47;;
13989;SDS011;7069;52.528;13.316;2022-12-18T14:36:57;26.33;;;17.53;;
13989;SDS011;7069;52.528;13.316;2022-12-18T14:39:24;30.03;;;18.03;;
13989;SDS011;7069;52.528;13.316;2022-12-18T14:41:52;35.00;;;18.53;;
13989;SDS011;7069;52.528;13.316;2022-12-18T14:44:19;33.23;;;20.70;;
13989;SDS011;7069;52.528;13.316;2022-12-18T14:46:48;28.27;;;17.90;;
13989;SDS011;7069;52.528;13.316;2022-12-18T14:49:19;32.17;;;20.10;;